ZJHKZJSY

Guest
Details From ZJHK - MEILAN
To ZJSY - PHOENIX INTL
Flight Number -
Tags generated
Created
Modified
Stats Distance 116 nm / 215 km
Max Altitude 12,200 ft / 3,719 m
Waypoints 3
Social Downloads 1
Likes 0
Share VATSIM

Download

Looking for another format? Having issues loading an existing format? Contact us
Advertisement - Login to hide

Notes

Basic altitude profile: - Ascent Rate: 2500ft/min - Ascent Speed: 250kts - Cruise Altitude: 35000ft - Cruise Speed: 420kts - Descent Rate: 1500ft/min - Descent Speed: 250kts Options: - Use NATs: yes - Use PACOTS: yes - Use low airways: yes - Use high airways: yes

Route

ZJHK GIVIL ZJSY

ID Type Via Altitude Latitude Longitude Leg Dist Tot Dist Heading (true) Name
O ZJHK APT - 0 ft / 0 m 19.93484˚ 110.45526˚ - 0 nm - MEILAN
GIVIL FIX - 12,200 ft / 3,719 m 19.25000˚ 109.83333˚ 54 nm 54 nm 221° / 220° -
O ZJSY APT - 0 ft / 0 m 18.30289˚ 109.41227˚ 61 nm 115 nm 203° / 203° PHOENIX INTL

Altitude Profile

Advertisement - Login to hide

ZJHK

Details ICAO ZJHK (HAK)
Name MEILAN
Region China
Timezone Asia/Chongqing (UTC+8.0)
Stats Elevation 75 ft / 23 m (AMSL)
Location 19.934836° 110.455264°
Runways 1
Magnetic Variation 1.940° W

METAR

ZJHK 161500Z 03006MPS 9999 BKN030 16/11 Q1025 NOSIG

Decode

TAF

Not found

Departure Runways

ID Width Length Bearing (true) Bearing (mag) Surface Threshold Offset Overrun Length
09 148 ft / 45 m 11,822 ft / 3,603 m 89.76° 91.70° Concrete 0 ft / 0 m 197 ft / 60 m
27 148 ft / 45 m 11,822 ft / 3,603 m 269.78° 271.72° Concrete 0 ft / 0 m 197 ft / 60 m

ZJSY

Details ICAO ZJSY (SYX)
Name PHOENIX INTL
Region China
Timezone Asia/Chongqing (UTC+8.0)
Stats Elevation 92 ft / 28 m (AMSL)
Location 18.302892° 109.412268°
Runways 1
Magnetic Variation 1.586° W

METAR

ZJSY 161500Z 10005MPS CAVOK 18/14 Q1021 NOSIG

Decode

TAF

Not found

Destination Runways

ID Width Length Bearing (true) Bearing (mag) Surface Threshold Offset Overrun Length
08 148 ft / 45 m 11,103 ft / 3,384 m 82.20° 83.79° Concrete 0 ft / 0 m 195 ft / 59 m
26 148 ft / 45 m 11,103 ft / 3,384 m 262.21° 263.80° Concrete 0 ft / 0 m 195 ft / 59 m

Approach Navaids

Runway Type Ident Frequency Range Bearing (true) Bearing (mag) Slope Elevation
08 Localiser IKK 109.50 MHz 18 nm / 33 km 82.13° 83.71° - 92 ft / 28 m (AMSL)
08 Glidescope IKK 109.50 MHz 10 nm / 19 km 82.20° 83.79° 3.00° 68 ft / 21 m (AMSL)
08 DME IKK 109.50 MHz 18 nm / 33 km - - - 68 ft / 21 m (AMSL)

Popular Alternatives